Time;durP1;ratioP1;P1;durP2;ratioP2;P2;SDS_P1;SDS_P2;PMS_P1;PMS_P2;Temp;Humidity;BMP_temperature;BMP_pressure;BME280_temperature;BME280_humidity;BME280_pressure;Samples;Min_cycle;Max_cycle;Signal;HPM_P1;HPM_P2
2022/07/12 00:01:56;;;;;;;4.75;2.33;;;;;;;15.27;61.70;100755.72;5030840;28;20045;-72
2022/07/12 00:04:21;;;;;;;5.18;1.65;;;;;;;15.22;61.91;100743.69;5030758;28;20476;-72
2022/07/12 00:06:47;;;;;;;9.30;1.90;;;;;;;15.21;61.95;100745.53;5030559;28;20040;-72
2022/07/12 00:09:13;;;;;;;8.35;2.25;;;;;;;15.26;62.08;100754.00;5030604;28;20040;-72
2022/07/12 00:11:38;;;;;;;11.00;1.85;;;;;;;15.26;62.47;100755.88;5030611;28;20029;-72
2022/07/12 00:14:05;;;;;;;6.18;1.95;;;;;;;15.24;62.63;100756.03;5029633;28;20059;-72
2022/07/12 00:16:30;;;;;;;4.03;1.42;;;;;;;15.22;62.92;100755.31;5030491;28;20087;-72
2022/07/12 00:18:57;;;;;;;6.85;1.70;;;;;;;15.22;62.22;100757.19;5030397;28;20431;-72
2022/07/12 00:21:23;;;;;;;10.30;1.95;;;;;;;15.16;62.10;100755.94;5030471;28;20111;-72
2022/07/12 00:23:48;;;;;;;5.72;2.00;;;;;;;15.21;62.67;100766.28;5030641;28;20081;-72
2022/07/12 00:26:13;;;;;;;7.32;1.98;;;;;;;15.18;62.86;100753.94;5030310;28;20033;-72
2022/07/12 00:28:39;;;;;;;6.88;2.47;;;;;;;15.14;63.26;100746.28;5030517;28;20029;-71
2022/07/12 00:31:05;;;;;;;5.85;2.25;;;;;;;15.18;63.01;100755.78;5030165;28;20073;-71
2022/07/12 00:33:30;;;;;;;3.80;1.60;;;;;;;15.17;63.32;100752.25;5030117;28;20039;-72
2022/07/12 00:35:56;;;;;;;7.13;1.50;;;;;;;15.20;63.06;100757.34;5030194;28;20029;-72
2022/07/12 00:38:21;;;;;;;6.45;1.98;;;;;;;15.19;63.28;100752.09;5030405;28;20029;-72
2022/07/12 00:40:47;;;;;;;6.32;1.70;;;;;;;15.13;63.86;100744.59;5030281;28;20021;-72
2022/07/12 00:43:13;;;;;;;9.20;2.20;;;;;;;15.19;64.60;100754.81;5029839;28;20039;-72
2022/07/12 00:45:38;;;;;;;6.95;2.50;;;;;;;15.16;65.18;100749.69;5028876;28;20034;-71
2022/07/12 00:48:04;;;;;;;7.43;2.85;;;;;;;15.17;65.46;100748.69;5029695;28;20033;-71
2022/07/12 00:50:30;;;;;;;9.57;2.60;;;;;;;15.16;65.43;100752.41;5029741;28;20041;-73
2022/07/12 00:52:56;;;;;;;5.88;2.10;;;;;;;15.13;65.04;100750.00;5030154;28;20056;-72
2022/07/12 00:55:22;;;;;;;8.63;2.67;;;;;;;15.04;64.43;100737.41;5030189;28;20052;-72
2022/07/12 00:57:49;;;;;;;10.63;3.50;;;;;;;14.99;64.22;100740.56;5030553;28;20364;-71
2022/07/12 01:00:17;;;;;;;7.65;2.75;;;;;;;15.09;63.12;100759.44;5030489;28;20034;-72
2022/07/12 01:02:43;;;;;;;5.72;3.03;;;;;;;15.06;62.99;100752.44;5029751;28;20060;-70
2022/07/12 01:05:10;;;;;;;7.35;3.42;;;;;;;15.03;62.78;100754.63;5028361;28;20029;-71
2022/07/12 01:07:36;;;;;;;9.35;3.55;;;;;;;14.97;62.92;100752.53;5030060;28;20576;-71
2022/07/12 01:10:03;;;;;;;8.13;3.08;;;;;;;14.99;62.80;100756.75;5028611;28;20395;-72
2022/07/12 01:12:29;;;;;;;5.35;2.78;;;;;;;14.97;62.52;100763.34;5029878;28;20078;-72
2022/07/12 01:14:56;;;;;;;8.52;2.88;;;;;;;14.88;62.73;100754.28;5029594;28;20091;-71
2022/07/12 01:17:24;;;;;;;6.03;2.58;;;;;;;14.88;62.46;100764.25;5029935;28;20049;-71
2022/07/12 01:19:52;;;;;;;6.88;3.08;;;;;;;14.84;62.32;100761.00;5029920;28;20093;-73
2022/07/12 01:22:18;;;;;;;5.80;2.67;;;;;;;14.76;62.57;100752.78;5029641;28;20033;-72
2022/07/12 01:24:45;;;;;;;6.40;2.45;;;;;;;14.76;62.74;100760.03;5028056;28;20100;-70
2022/07/12 01:27:12;;;;;;;9.13;2.30;;;;;;;14.76;62.79;100769.00;5029574;28;20032;-71
2022/07/12 01:29:38;;;;;;;8.68;2.20;;;;;;;14.72;62.69;100755.94;5029470;28;20017;-72
2022/07/12 01:34:50;;;;;;;6.05;1.60;;;;;;;14.69;62.05;100761.63;5029623;28;20036;-72
2022/07/12 01:37:17;;;;;;;5.07;1.70;;;;;;;14.70;61.98;100771.47;5027941;28;20040;-72
2022/07/12 01:39:48;;;;;;;7.72;1.83;;;;;;;14.51;62.33;100733.75;5027826;28;20025;-72
2022/07/12 01:42:13;;;;;;;6.10;1.90;;;;;;;14.59;62.22;100753.59;5029007;28;20112;-72
2022/07/12 01:44:40;;;;;;;3.78;1.60;;;;;;;14.63;62.14;100756.84;5029429;28;20448;-71
2022/07/12 01:47:06;;;;;;;8.07;1.90;;;;;;;14.59;61.92;100764.41;5027949;28;20037;-71
2022/07/12 01:49:31;;;;;;;4.13;1.85;;;;;;;14.57;61.87;100755.59;5029138;28;20041;-71
2022/07/12 01:51:58;;;;;;;7.63;2.72;;;;;;;14.56;62.36;100753.91;5029417;28;20159;-71
2022/07/12 01:54:25;;;;;;;2.67;1.75;;;;;;;14.56;62.28;100756.59;5027929;28;20030;-72
2022/07/12 01:56:54;;;;;;;7.40;1.75;;;;;;;14.51;62.52;100745.38;5029388;28;20083;-72
2022/07/12 01:59:21;;;;;;;7.10;2.38;;;;;;;14.47;62.16;100737.72;5029463;28;20029;-71
2022/07/12 02:01:47;;;;;;;6.60;1.98;;;;;;;14.47;62.74;100753.94;5027867;28;20092;-72
2022/07/12 02:04:15;;;;;;;7.10;2.38;;;;;;;14.44;63.04;100754.25;5029385;28;20029;-72
2022/07/12 02:06:41;;;;;;;4.68;1.85;;;;;;;14.40;62.80;100756.38;5029214;28;20029;-72
2022/07/12 02:09:07;;;;;;;6.90;1.98;;;;;;;14.35;62.79;100750.56;5029327;28;20032;-72
2022/07/12 02:11:32;;;;;;;4.20;1.75;;;;;;;14.37;62.72;100745.03;5023490;28;20079;-71
2022/07/12 02:13:58;;;;;;;4.85;1.98;;;;;;;14.34;62.55;100742.63;5017833;28;20073;-72
2022/07/12 02:16:23;;;;;;;6.45;1.98;;;;;;;14.32;62.57;100753.56;5020014;28;20047;-71
2022/07/12 02:18:48;;;;;;;7.82;2.10;;;;;;;14.28;62.73;100757.56;5018192;28;20025;-71
2022/07/12 02:21:14;;;;;;;5.43;1.88;;;;;;;14.19;62.73;100747.59;5019031;28;20021;-71
2022/07/12 02:23:39;;;;;;;5.25;2.10;;;;;;;14.21;63.05;100756.41;5018820;28;20554;-72
2022/07/12 02:26:05;;;;;;;7.03;1.98;;;;;;;14.17;62.85;100763.13;5017323;28;20734;-71
2022/07/12 02:28:31;;;;;;;10.15;2.25;;;;;;;14.17;63.53;100763.13;5019547;28;20041;-71
2022/07/12 02:30:57;;;;;;;7.13;2.13;;;;;;;14.07;63.38;100745.25;5017972;28;20037;-71
2022/07/12 02:33:23;;;;;;;7.55;2.17;;;;;;;14.06;63.53;100763.25;5016458;28;20038;-73
2022/07/12 02:35:48;;;;;;;5.47;2.17;;;;;;;14.09;63.28;100754.06;5020848;28;20532;-71
2022/07/12 02:38:13;;;;;;;5.72;1.92;;;;;;;14.01;63.61;100757.47;5022577;28;20381;-72
2022/07/12 02:40:54;;;;;;;10.80;2.25;;;;;;;14.06;63.23;100768.66;5024281;28;20026;-72
2022/07/12 02:43:23;;;;;;;5.18;2.25;;;;;;;14.01;63.30;100757.47;5021937;28;20064;-71
2022/07/12 02:45:50;;;;;;;2.85;1.65;;;;;;;14.01;63.29;100765.56;5023369;28;20052;-71
2022/07/12 02:48:16;;;;;;;6.07;2.13;;;;;;;13.75;63.59;100740.22;5023673;28;20044;-72
2022/07/12 02:50:42;;;;;;;4.28;1.77;;;;;;;13.70;63.62;100731.69;5021530;28;20038;-71
2022/07/12 02:53:09;;;;;;;8.40;2.42;;;;;;;13.80;63.89;100764.88;5027397;28;20037;-72
2022/07/12 02:55:35;;;;;;;6.43;2.40;;;;;;;13.79;63.91;100763.19;5027187;28;20025;-72
2022/07/12 02:58:01;;;;;;;3.33;2.08;;;;;;;13.75;64.42;100772.56;5015969;28;20116;-72
2022/07/12 03:00:27;;;;;;;4.53;2.00;;;;;;;13.52;64.59;100731.56;5012837;28;20443;-72
2022/07/12 03:02:53;;;;;;;9.07;1.85;;;;;;;13.72;65.01;100772.84;5011312;28;20046;-71
2022/07/12 03:05:18;;;;;;;3.25;1.73;;;;;;;13.71;65.01;100758.50;5013239;28;20031;-70
2022/07/12 03:07:44;;;;;;;7.47;2.25;;;;;;;13.67;64.82;100753.56;5012684;28;20044;-72
2022/07/12 03:10:10;;;;;;;4.70;1.83;;;;;;;13.62;64.87;100756.72;5012817;28;20028;-72
2022/07/12 03:12:36;;;;;;;4.32;2.08;;;;;;;13.67;64.72;100764.34;5012892;28;20018;-72
2022/07/12 03:15:02;;;;;;;4.28;1.73;;;;;;;13.55;64.76;100750.16;5013220;28;20041;-72
2022/07/12 03:17:28;;;;;;;13.27;2.10;;;;;;;13.63;65.04;100777.25;5013124;28;20034;-73
2022/07/12 03:19:53;;;;;;;5.78;2.35;;;;;;;13.65;64.91;100764.47;5012599;28;20022;-71
2022/07/12 03:22:18;;;;;;;2.47;1.63;;;;;;;13.66;64.83;100765.34;5011542;28;20026;-72
2022/07/12 03:24:44;;;;;;;8.48;2.20;;;;;;;13.70;64.57;100766.75;5012927;28;20025;-72
2022/07/12 03:27:09;;;;;;;8.80;1.80;;;;;;;13.71;64.52;100768.47;5013134;28;20042;-72
2022/07/12 03:29:35;;;;;;;3.33;1.80;;;;;;;13.72;63.80;100762.06;5012168;28;20026;-72
2022/07/12 03:32:01;;;;;;;7.05;1.70;;;;;;;13.68;63.98;100761.50;5012574;28;20538;-70
2022/07/12 03:34:26;;;;;;;11.52;2.67;;;;;;;13.69;64.62;100771.31;5013090;28;20109;-72
2022/07/12 03:36:52;;;;;;;10.38;2.30;;;;;;;13.73;64.46;100772.72;5012945;28;20025;-72
2022/07/12 03:39:17;;;;;;;8.07;1.80;;;;;;;13.68;64.21;100774.16;5012794;28;20022;-72
2022/07/12 03:41:43;;;;;;;5.63;2.10;;;;;;;13.73;64.33;100772.72;5012805;28;20025;-72
2022/07/12 03:44:08;;;;;;;7.68;2.28;;;;;;;13.78;64.52;100774.97;5007211;28;20037;-71
2022/07/12 03:46:34;;;;;;;5.45;2.22;;;;;;;13.84;63.94;100771.72;5008930;28;20494;-72
2022/07/12 03:48:59;;;;;;;4.60;1.65;;;;;;;13.89;64.02;100771.28;5011170;28;20018;-71
2022/07/12 03:51:26;;;;;;;4.35;1.77;;;;;;;13.99;63.81;100772.13;5012370;28;20041;-72
2022/07/12 03:53:51;;;;;;;4.80;1.77;;;;;;;14.06;63.58;100779.44;5011867;28;20034;-72
2022/07/12 03:59:02;;;;;;;8.38;2.22;;;;;;;14.38;63.66;100779.97;5025055;28;20052;-66
2022/07/12 04:01:27;;;;;;;6.95;1.85;;;;;;;14.50;62.76;100768.00;5030964;28;20435;-65
2022/07/12 04:03:53;;;;;;;7.10;2.33;;;;;;;14.69;62.63;100786.81;5031010;28;20108;-66
2022/07/12 04:06:18;;;;;;;5.63;2.05;;;;;;;14.83;62.18;100785.47;5030783;28;20056;-67
2022/07/12 04:08:43;;;;;;;3.45;1.65;;;;;;;14.89;61.51;100776.72;5030860;28;20079;-66
2022/07/12 04:11:09;;;;;;;7.78;1.90;;;;;;;15.01;61.53;100773.69;5030726;28;20064;-67
2022/07/12 04:13:36;;;;;;;5.65;2.20;;;;;;;15.15;61.40;100783.97;5030517;28;20056;-67
2022/07/12 04:16:01;;;;;;;12.32;2.20;;;;;;;15.27;61.02;100771.06;5030713;28;20033;-67
2022/07/12 04:18:27;;;;;;;6.78;1.90;;;;;;;15.51;60.28;100780.31;5031433;28;20064;-66
2022/07/12 04:20:52;;;;;;;5.55;1.80;;;;;;;15.74;59.78;100791.50;5031261;28;20022;-66
2022/07/12 04:23:17;;;;;;;7.10;1.30;;;;;;;15.93;58.34;100757.00;5031128;28;20029;-66
2022/07/12 04:25:43;;;;;;;8.10;1.60;;;;;;;16.30;57.93;100782.94;5031271;28;20025;-66
2022/07/12 04:28:08;;;;;;;6.75;1.73;;;;;;;16.46;57.57;100772.25;5031171;28;20024;-67
2022/07/12 04:30:34;;;;;;;7.88;2.00;;;;;;;16.50;56.70;100746.53;5031046;28;20021;-69
2022/07/12 04:32:59;;;;;;;3.92;1.02;;;;;;;16.79;56.51;100772.22;5031500;28;20033;-69
2022/07/12 04:35:24;;;;;;;11.00;1.33;;;;;;;16.97;56.03;100764.00;5031392;28;20027;-71
2022/07/12 04:37:50;;;;;;;9.25;1.60;;;;;;;17.06;55.92;100765.72;5031062;28;20061;-72
2022/07/12 04:40:15;;;;;;;5.22;1.02;;;;;;;17.25;55.24;100768.16;5032897;28;20513;-72
2022/07/12 04:42:41;;;;;;;8.65;1.08;;;;;;;17.52;54.29;100773.31;5031981;28;20034;-72
2022/07/12 04:45:07;;;;;;;5.40;1.42;;;;;;;17.60;54.21;100760.59;5032206;28;20056;-71
2022/07/12 04:47:36;;;;;;;1.38;0.70;;;;;;;17.68;54.17;100757.91;5030871;28;20117;-72
2022/07/12 04:50:07;;;;;;;2.65;1.00;;;;;;;17.93;53.41;100772.31;5030732;28;20032;-71
2022/07/12 04:52:34;;;;;;;2.83;0.90;;;;;;;17.96;53.52;100764.66;5030865;28;20063;-72
2022/07/12 04:55:00;;;;;;;6.93;1.40;;;;;;;18.17;53.19;100769.53;5029942;28;20060;-72
2022/07/12 04:57:26;;;;;;;1.33;0.82;;;;;;;18.35;52.58;100775.63;5029699;28;20033;-72
2022/07/12 04:59:51;;;;;;;3.42;0.75;;;;;;;18.53;51.87;100773.56;5030772;28;20072;-72
2022/07/12 05:02:16;;;;;;;2.08;1.20;;;;;;;18.68;51.57;100768.25;5030937;28;20045;-72
2022/07/12 05:04:42;;;;;;;3.35;0.80;;;;;;;18.85;51.16;100767.16;5030709;28;20120;-73
2022/07/12 05:07:07;;;;;;;3.20;1.15;;;;;;;18.96;50.55;100767.59;5031159;28;20045;-72
2022/07/12 05:09:33;;;;;;;4.97;1.05;;;;;;;19.08;50.77;100766.19;5030841;28;20025;-72
2022/07/12 05:11:58;;;;;;;8.85;1.27;;;;;;;19.23;50.26;100774.44;5030671;28;20083;-72
2022/07/12 05:14:24;;;;;;;7.25;0.98;;;;;;;19.32;50.26;100768.78;5030661;28;20084;-72
2022/07/12 05:16:49;;;;;;;2.10;0.82;;;;;;;19.40;49.91;100760.59;5031523;28;20041;-72
2022/07/12 05:19:16;;;;;;;4.20;1.00;;;;;;;19.58;49.61;100763.84;5031794;28;20033;-72
2022/07/12 05:21:42;;;;;;;8.00;1.02;;;;;;;19.76;49.13;100768.97;5030437;28;20124;-71
2022/07/12 05:24:08;;;;;;;3.63;1.10;;;;;;;19.91;49.00;100776.19;5031172;28;20017;-72
2022/07/12 05:26:34;;;;;;;4.85;1.15;;;;;;;20.04;48.78;100775.53;5032748;28;20098;-72
2022/07/12 05:28:59;;;;;;;3.72;1.05;;;;;;;20.14;48.22;100765.25;5031965;28;20056;-73
2022/07/12 05:31:25;;;;;;;4.40;0.90;;;;;;;20.21;48.13;100771.66;5029309;28;20029;-72
2022/07/12 05:33:50;;;;;;;5.45;1.00;;;;;;;20.42;47.55;100774.53;5030925;28;20120;-72
2022/07/12 05:36:16;;;;;;;3.28;0.65;;;;;;;20.43;47.91;100770.75;5030668;28;20047;-72
2022/07/12 05:38:41;;;;;;;5.53;1.02;;;;;;;20.56;47.31;100772.81;5030480;28;20033;-72
2022/07/12 05:41:07;;;;;;;3.47;1.00;;;;;;;20.74;46.47;100770.56;5030649;28;20472;-72
2022/07/12 05:43:32;;;;;;;1.55;0.65;;;;;;;20.68;46.88;100764.00;5031090;28;20079;-73
2022/07/12 05:45:58;;;;;;;4.88;1.25;;;;;;;20.91;46.63;100785.69;5030828;28;20033;-72
2022/07/12 05:48:23;;;;;;;3.97;0.80;;;;;;;20.93;46.73;100778.16;5030730;28;20069;-73
2022/07/12 05:50:49;;;;;;;5.22;1.10;;;;;;;21.16;46.19;100787.09;5030850;28;20116;-72
2022/07/12 05:53:24;;;;;;;6.05;1.00;;;;;;;21.26;45.83;100769.38;5030223;28;20041;-72
2022/07/12 05:55:51;;;;;;;6.70;0.80;;;;;;;21.41;45.39;100775.63;5028972;28;20025;-72
2022/07/12 05:58:17;;;;;;;3.53;1.20;;;;;;;21.39;45.72;100755.88;5028733;28;20463;-72
2022/07/12 06:00:43;;;;;;;4.30;0.88;;;;;;;21.70;44.84;100761.88;5030130;28;20025;-73
2022/07/12 06:03:09;;;;;;;3.88;1.02;;;;;;;21.78;44.69;100780.03;5029909;28;20396;-73
2022/07/12 06:05:34;;;;;;;1.85;0.70;;;;;;;21.86;44.80;100771.72;5030158;28;20087;-72
2022/07/12 06:07:59;;;;;;;9.45;1.15;;;;;;;21.89;44.48;100768.56;5029653;28;20056;-73
2022/07/12 06:10:25;;;;;;;3.90;0.73;;;;;;;22.08;43.95;100770.63;5029644;28;20030;-72
2022/07/12 06:12:50;;;;;;;4.97;0.98;;;;;;;22.26;43.01;100769.13;5032895;28;20120;-73
2022/07/12 06:15:16;;;;;;;2.58;1.20;;;;;;;22.12;44.04;100771.94;5033673;28;20094;-73
2022/07/12 06:17:41;;;;;;;2.72;0.80;;;;;;;22.11;44.14;100757.44;5034003;28;20781;-73
2022/07/12 06:20:07;;;;;;;2.50;0.80;;;;;;;22.11;43.66;100746.50;5033875;28;20033;-73
2022/07/12 06:22:33;;;;;;;6.60;0.90;;;;;;;22.34;43.73;100754.44;5033751;28;20465;-72
2022/07/12 06:24:58;;;;;;;3.08;0.73;;;;;;;22.54;42.64;100743.66;5033735;28;20037;-73
2022/07/12 06:27:24;;;;;;;3.22;0.90;;;;;;;22.65;42.76;100759.50;5033580;28;20136;-73
2022/07/12 06:29:50;;;;;;;3.38;0.88;;;;;;;22.78;42.33;100756.84;5033474;28;20033;-72
2022/07/12 06:32:17;;;;;;;4.05;0.80;;;;;;;22.83;42.37;100762.56;5033537;28;20018;-72
2022/07/12 06:34:42;;;;;;;3.53;0.82;;;;;;;22.90;42.07;100772.50;5033280;28;20603;-72
2022/07/12 06:37:08;;;;;;;3.50;0.73;;;;;;;23.12;41.32;100771.31;5033220;28;20072;-72
2022/07/12 06:39:35;;;;;;;1.40;0.70;;;;;;;23.05;41.55;100762.22;5033361;28;20021;-72
2022/07/12 06:42:03;;;;;;;3.22;0.80;;;;;;;23.15;41.12;100759.94;5033327;28;20522;-73
2022/07/12 06:44:30;;;;;;;3.97;0.63;;;;;;;23.25;41.39;100765.91;5033122;28;20086;-73
2022/07/12 06:46:56;;;;;;;1.17;0.68;;;;;;;23.34;40.93;100767.41;5033036;28;20499;-73
2022/07/12 06:49:21;;;;;;;3.35;0.77;;;;;;;23.45;40.51;100766.84;5032753;28;20059;-72
2022/07/12 06:51:47;;;;;;;1.63;0.50;;;;;;;23.58;40.42;100766.00;5033618;28;20034;-66
2022/07/12 06:54:12;;;;;;;5.07;0.90;;;;;;;23.76;39.97;100769.81;5033502;28;20120;-65
2022/07/12 06:56:38;;;;;;;5.07;0.80;;;;;;;23.63;40.71;100771.72;5033510;28;20057;-65
2022/07/12 06:59:03;;;;;;;3.65;0.80;;;;;;;23.67;40.45;100759.28;5031809;28;20021;-66
2022/07/12 07:01:29;;;;;;;6.10;0.70;;;;;;;23.69;40.76;100755.28;5033012;28;20523;-66
2022/07/12 07:03:54;;;;;;;2.10;0.50;;;;;;;23.78;40.34;100756.78;5033392;28;20041;-66
2022/07/12 07:06:20;;;;;;;6.32;0.77;;;;;;;24.01;39.56;100764.59;5033029;28;20068;-66
2022/07/12 07:08:45;;;;;;;1.25;0.50;;;;;;;23.93;39.98;100762.88;5032865;28;20044;-65
2022/07/12 07:11:11;;;;;;;8.13;0.95;;;;;;;23.79;39.64;100747.50;5031608;28;20073;-65
2022/07/12 07:13:37;;;;;;;4.22;0.70;;;;;;;23.99;39.75;100762.06;5032116;28;20080;-65
2022/07/12 07:16:02;;;;;;;3.10;0.70;;;;;;;24.04;39.80;100754.06;5032997;28;20075;-66
2022/07/12 07:18:28;;;;;;;2.95;0.82;;;;;;;24.17;39.20;100767.78;5032540;28;20113;-66
2022/07/12 07:20:53;;;;;;;4.43;0.60;;;;;;;24.14;39.12;100768.19;5032634;28;20121;-66
2022/07/12 07:23:19;;;;;;;2.47;0.55;;;;;;;24.17;39.38;100759.56;5032638;28;20044;-65
2022/07/12 07:25:46;;;;;;;5.05;0.80;;;;;;;24.22;38.82;100757.00;5032278;28;20044;-66
2022/07/12 07:28:11;;;;;;;9.50;0.73;;;;;;;24.24;39.21;100767.75;5032912;28;20037;-65
2022/07/12 07:30:52;;;;;;;2.38;0.60;;;;;;;24.27;39.56;100770.94;5032603;28;20033;-66
2022/07/12 07:33:19;;;;;;;3.53;0.75;;;;;;;24.40;38.88;100761.84;5032455;28;20083;-66
2022/07/12 07:35:45;;;;;;;1.63;0.52;;;;;;;24.48;38.25;100769.00;5032502;28;20102;-66
2022/07/12 07:38:10;;;;;;;4.18;0.73;;;;;;;24.47;38.40;100767.31;5032244;28;20037;-66
2022/07/12 07:40:36;;;;;;;9.85;0.95;;;;;;;24.64;37.93;100757.59;5032253;28;20052;-66
2022/07/12 07:43:02;;;;;;;9.93;1.20;;;;;;;24.58;38.54;100753.78;5032394;28;20075;-65
2022/07/12 07:45:27;;;;;;;2.55;0.75;;;;;;;24.67;38.11;100762.66;5031936;28;20143;-65
2022/07/12 07:47:53;;;;;;;8.18;0.88;;;;;;;24.67;37.87;100763.53;5032413;28;20040;-65
2022/07/12 07:50:18;;;;;;;4.72;0.80;;;;;;;24.70;37.39;100764.97;5031946;28;20045;-65
2022/07/12 07:52:45;;;;;;;1.65;0.52;;;;;;;24.73;37.33;100762.63;5032386;28;20543;-66
2022/07/12 07:55:11;;;;;;;2.53;0.60;;;;;;;24.76;37.20;100758.63;5032198;28;20033;-66
2022/07/12 07:57:36;;;;;;;6.72;0.80;;;;;;;24.79;36.82;100756.28;5031933;28;20032;-65
2022/07/12 08:00:03;;;;;;;1.50;0.60;;;;;;;24.86;36.88;100759.03;5032062;28;20022;-66
2022/07/12 08:02:28;;;;;;;7.20;0.60;;;;;;;24.96;36.58;100754.78;5031777;28;20607;-66
2022/07/12 08:04:54;;;;;;;9.45;0.70;;;;;;;25.05;36.67;100755.38;5031887;28;20025;-66
2022/07/12 08:07:19;;;;;;;6.30;0.75;;;;;;;25.23;36.08;100760.97;5031681;28;20038;-66
2022/07/12 08:09:45;;;;;;;1.45;0.77;;;;;;;24.97;36.65;100766.56;5031900;28;20059;-65
2022/07/12 08:12:10;;;;;;;6.45;0.60;;;;;;;24.77;36.33;100749.34;5031686;28;20399;-66
2022/07/12 08:14:36;;;;;;;4.13;1.30;;;;;;;24.83;36.38;100760.31;5031713;28;20032;-66
2022/07/12 08:17:01;;;;;;;7.10;1.48;;;;;;;24.72;36.31;100752.72;5031650;28;20045;-66
2022/07/12 08:19:27;;;;;;;4.32;0.70;;;;;;;24.69;36.29;100766.06;5031808;28;20029;-65
2022/07/12 08:21:52;;;;;;;2.45;0.70;;;;;;;24.65;36.26;100751.91;5031495;28;20033;-66
2022/07/12 08:24:18;;;;;;;3.25;0.55;;;;;;;24.72;36.43;100760.09;5031653;28;20053;-66
2022/07/12 08:26:43;;;;;;;3.95;0.88;;;;;;;24.68;36.29;100751.47;5031274;28;20029;-66
2022/07/12 08:29:09;;;;;;;3.13;0.45;;;;;;;24.75;36.08;100744.06;5031605;28;20079;-65
2022/07/12 08:31:34;;;;;;;5.65;0.52;;;;;;;24.65;36.28;100729.09;5031544;28;20111;-66
2022/07/12 08:34:00;;;;;;;6.30;0.98;;;;;;;24.64;36.17;100735.66;5030748;28;20044;-65
2022/07/12 08:36:25;;;;;;;0.65;0.47;;;;;;;24.58;36.52;100720.03;5031228;28;20516;-66
2022/07/12 08:38:51;;;;;;;2.63;0.70;;;;;;;24.80;36.53;100746.16;5030785;28;20045;-65
2022/07/12 08:41:16;;;;;;;2.60;0.50;;;;;;;24.92;36.72;100739.78;5031467;28;20051;-66
2022/07/12 08:43:42;;;;;;;5.53;0.70;;;;;;;25.03;36.58;100741.00;5031208;28;20025;-66
2022/07/12 08:46:13;;;;;;;4.20;1.05;;;;;;;25.11;35.77;100732.53;5031120;28;20443;-66
2022/07/12 08:48:40;;;;;;;2.33;0.82;;;;;;;25.26;36.00;100741.31;5031156;28;20550;-65
2022/07/12 08:51:11;;;;;;;4.47;0.80;;;;;;;25.15;36.17;100718.13;5030882;28;20156;-65
2022/07/12 08:53:37;;;;;;;1.08;0.47;;;;;;;25.34;35.87;100738.34;5030902;28;20037;-66
2022/07/12 08:56:03;;;;;;;5.07;0.65;;;;;;;25.40;35.78;100734.69;5030911;28;20051;-65
2022/07/12 08:58:29;;;;;;;4.97;0.70;;;;;;;25.48;35.04;100723.47;5030651;28;20396;-65
2022/07/12 09:00:54;;;;;;;2.17;0.93;;;;;;;25.65;34.18;100738.34;5030997;28;20032;-67
2022/07/12 09:03:20;;;;;;;1.02;0.52;;;;;;;25.54;34.76;100728.91;5030463;28;20057;-67
2022/07/12 09:05:53;;;;;;;4.00;0.55;;;;;;;25.55;34.77;100721.50;5030736;28;20025;-65
2022/07/12 09:08:31;;;;;;;4.07;0.80;;;;;;;25.59;35.41;100725.50;5030707;28;20021;-66
2022/07/12 09:11:02;;;;;;;3.47;1.10;;;;;;;25.63;35.71;100735.00;5030957;28;20037;-66
2022/07/12 09:13:53;;;;;;;3.00;0.68;;;;;;;25.64;35.18;100734.78;5030592;28;20036;-65
2022/07/12 09:16:21;;;;;;;2.17;0.70;;;;;;;25.61;35.26;100734.38;5030702;28;20034;-66
2022/07/12 09:18:48;;;;;;;3.97;0.80;;;;;;;25.53;34.70;100737.38;5030646;28;20071;-66
2022/07/12 09:21:27;;;;;;;8.32;1.02;;;;;;;25.46;34.60;100736.56;5030582;28;20084;-65
2022/07/12 09:23:57;;;;;;;6.43;0.80;;;;;;;25.46;34.94;100734.69;5045605;28;20033;-65
2022/07/12 09:26:33;;;;;;;3.78;0.70;;;;;;;25.47;34.88;100736.34;5030290;28;20108;-66
2022/07/12 09:29:06;;;;;;;4.43;0.73;;;;;;;25.56;34.79;100725.94;5030044;28;20850;-66
2022/07/12 09:37:16;;;;;;;2.45;0.80;;;;;;;25.65;34.11;100735.59;5030635;28;20051;-66
2022/07/12 09:39:43;;;;;;;5.75;0.70;;;;;;;25.71;33.88;100719.09;5030414;28;20029;-67
2022/07/12 09:42:12;;;;;;;3.53;0.85;;;;;;;25.74;34.03;100732.38;5030253;28;20404;-67
2022/07/12 09:44:39;;;;;;;4.55;0.80;;;;;;;25.69;34.08;100717.59;5030274;28;20599;-66
2022/07/12 09:47:15;;;;;;;4.10;0.90;;;;;;;25.80;33.85;100714.97;5029232;28;20045;-65
2022/07/12 09:49:42;;;;;;;5.40;0.80;;;;;;;25.67;34.11;100711.50;5045164;28;20036;-66
2022/07/12 09:52:28;;;;;;;6.57;0.98;;;;;;;25.81;33.95;100715.81;5030237;28;20025;-66
2022/07/12 09:54:55;;;;;;;1.65;0.65;;;;;;;25.79;34.22;100717.97;5029713;28;20095;-65
2022/07/12 09:57:30;;;;;;;9.38;0.95;;;;;;;25.84;33.46;100723.63;5045241;28;20025;-66
2022/07/12 09:59:58;;;;;;;5.18;1.27;;;;;;;25.73;34.03;100725.19;5030117;28;20420;-66
2022/07/12 10:02:24;;;;;;;4.38;0.80;;;;;;;25.76;33.72;100712.91;5029817;28;20080;-67
2022/07/12 10:04:51;;;;;;;2.88;0.63;;;;;;;25.79;33.92;100710.53;5029979;28;20025;-65
2022/07/12 10:07:17;;;;;;;3.50;0.43;;;;;;;25.88;34.13;100706.47;5030049;28;20022;-66
2022/07/12 10:09:52;;;;;;;3.65;0.80;;;;;;;26.14;33.62;100709.00;5029803;28;20169;-66
2022/07/12 10:12:19;;;;;;;9.82;1.15;;;;;;;26.09;33.51;100683.25;5045247;28;20702;-66
2022/07/12 10:14:46;;;;;;;7.20;0.85;;;;;;;26.47;32.17;100712.25;5030191;28;20538;-66
2022/07/12 10:17:13;;;;;;;3.15;0.50;;;;;;;26.25;32.22;100682.66;5030093;28;20416;-66
2022/07/12 10:19:39;;;;;;;4.68;0.98;;;;;;;26.34;32.82;100693.13;5029989;28;20026;-66
2022/07/12 10:22:20;;;;;;;16.58;1.35;;;;;;;26.37;32.76;100698.19;5030162;28;20046;-65
2022/07/12 10:24:48;;;;;;;21.23;2.50;;;;;;;26.24;33.14;100678.22;5029982;28;20442;-65
2022/07/12 10:27:13;;;;;;;11.23;1.55;;;;;;;26.34;32.55;100708.78;5029742;28;20116;-67
2022/07/12 10:29:42;;;;;;;4.88;1.10;;;;;;;26.23;32.75;100701.31;5029721;28;20117;-65
2022/07/12 10:32:35;;;;;;;5.05;0.93;;;;;;;26.16;32.96;100706.03;5029759;28;20025;-66
2022/07/12 10:35:07;;;;;;;3.83;1.02;;;;;;;26.19;33.20;100700.94;5029806;28;20021;-65
2022/07/12 10:37:34;;;;;;;3.35;0.70;;;;;;;26.20;32.79;100696.25;5029545;28;20116;-66
2022/07/12 10:40:19;;;;;;;1.20;0.77;;;;;;;26.27;32.38;100702.53;5029764;28;20388;-65
2022/07/12 10:43:00;;;;;;;3.25;0.75;;;;;;;26.21;32.28;100703.41;5029983;28;20021;-64
2022/07/12 10:45:39;;;;;;;3.40;0.80;;;;;;;26.05;32.36;100702.09;5029556;28;20770;-65
2022/07/12 10:48:22;;;;;;;4.85;1.00;;;;;;;25.97;32.51;100704.31;5029462;28;20061;-67
2022/07/12 10:50:55;;;;;;;3.13;0.40;;;;;;;25.91;31.91;100705.16;5029597;28;20105;-66
2022/07/12 10:53:23;;;;;;;3.42;0.70;;;;;;;25.81;32.23;100694.69;5029669;28;20492;-65
2022/07/12 10:56:06;;;;;;;0.68;0.38;;;;;;;25.80;31.66;100700.41;5029667;28;20029;-65
2022/07/12 10:58:32;;;;;;;1.37;0.50;;;;;;;25.79;32.19;100713.28;5031593;28;20033;-65
2022/07/12 11:01:12;;;;;;;4.20;0.60;;;;;;;25.99;31.58;100688.44;5033238;28;20017;-66
2022/07/12 11:03:43;;;;;;;4.55;0.70;;;;;;;26.07;31.73;100691.72;5033182;28;20037;-67
2022/07/12 11:06:10;;;;;;;6.07;0.80;;;;;;;26.12;31.19;100691.06;5033202;28;20029;-66
2022/07/12 11:08:52;;;;;;;7.38;0.60;;;;;;;26.21;31.56;100690.53;5033156;28;20480;-66
2022/07/12 11:11:19;;;;;;;7.55;1.00;;;;;;;26.49;31.24;100688.13;5032843;28;20025;-66
2022/07/12 11:13:44;;;;;;;5.03;0.98;;;;;;;26.53;31.26;100683.84;5032982;28;20413;-66
2022/07/12 11:16:11;;;;;;;6.60;0.55;;;;;;;26.57;30.93;100675.13;5048144;28;20093;-65
2022/07/12 11:18:37;;;;;;;5.22;0.88;;;;;;;26.69;30.57;100695.34;5032770;28;20025;-67
2022/07/12 11:21:04;;;;;;;7.22;0.98;;;;;;;26.72;30.42;100690.19;5032939;28;20052;-66
2022/07/12 11:23:31;;;;;;;5.40;1.48;;;;;;;26.89;30.52;100698.69;5032642;28;20049;-66
2022/07/12 11:25:58;;;;;;;3.50;0.73;;;;;;;26.70;30.93;100688.75;5048001;28;20029;-66
2022/07/12 11:28:24;;;;;;;8.68;1.10;;;;;;;26.84;30.54;100693.00;5032602;28;20052;-66
2022/07/12 11:30:51;;;;;;;6.22;1.00;;;;;;;26.68;30.86;100691.72;5032665;28;20029;-65
2022/07/12 11:33:17;;;;;;;3.13;0.80;;;;;;;26.55;31.25;100689.09;5032547;28;20034;-65
2022/07/12 11:35:46;;;;;;;8.23;0.80;;;;;;;26.51;31.22;100679.63;5032665;28;20017;-65